createdAt,value
2023-05-21T00:00:45.465Z,10.07
2023-05-21T00:03:16.370Z,8.60
2023-05-21T00:05:47.176Z,8.63
2023-05-21T00:08:15.252Z,9.75
2023-05-21T00:10:44.414Z,8.77
2023-05-21T00:13:12.254Z,8.38
2023-05-21T00:15:40.150Z,8.03
2023-05-21T00:18:08.105Z,10.65
2023-05-21T00:20:37.127Z,10.77
2023-05-21T00:23:05.237Z,8.80
2023-05-21T00:25:33.232Z,8.68
2023-05-21T00:28:02.597Z,8.03
2023-05-21T00:30:30.587Z,9.27
2023-05-21T00:33:02.454Z,7.90
2023-05-21T00:35:30.597Z,8.60
2023-05-21T00:37:58.559Z,10.57
2023-05-21T00:40:26.313Z,12.33
2023-05-21T00:42:57.214Z,8.77
2023-05-21T00:45:26.585Z,9.00
2023-05-21T00:47:55.567Z,9.35
2023-05-21T00:50:24.251Z,8.75
2023-05-21T00:52:52.113Z,8.37
2023-05-21T00:55:20.084Z,7.75
2023-05-21T00:57:49.435Z,12.98
2023-05-21T01:00:17.689Z,8.38
2023-05-21T01:02:47.540Z,10.23
2023-05-21T01:05:16.203Z,14.10
2023-05-21T01:07:44.278Z,8.88
2023-05-21T01:10:13.011Z,7.65
2023-05-21T01:12:43.784Z,10.25
2023-05-21T01:15:13.020Z,10.20
2023-05-21T01:17:41.472Z,7.10
2023-05-21T01:20:11.810Z,8.23
2023-05-21T01:22:45.192Z,8.32
2023-05-21T01:25:15.029Z,9.43
2023-05-21T01:27:42.893Z,9.75
2023-05-21T01:30:12.149Z,8.57
2023-05-21T01:32:46.227Z,8.32
2023-05-21T01:35:18.425Z,9.75
2023-05-21T01:37:52.528Z,9.15
2023-05-21T01:40:26.664Z,9.65
2023-05-21T01:42:54.588Z,8.67
2023-05-21T01:45:24.953Z,8.60
2023-05-21T01:47:55.674Z,7.88
2023-05-21T01:50:24.824Z,9.90
2023-05-21T01:52:54.241Z,9.10
2023-05-21T01:55:25.411Z,7.37
2023-05-21T01:57:53.845Z,9.60
2023-05-21T02:00:22.712Z,8.38
2023-05-21T02:02:50.819Z,11.13
2023-05-21T02:05:19.322Z,9.27
2023-05-21T02:07:48.606Z,9.43
2023-05-21T02:10:16.524Z,10.95
2023-05-21T02:12:45.956Z,8.60
2023-05-21T02:15:14.390Z,9.80
2023-05-21T02:17:42.517Z,11.05
2023-05-21T02:20:13.932Z,8.23
2023-05-21T02:22:42.969Z,8.88
2023-05-21T02:25:12.648Z,9.38
2023-05-21T02:27:42.457Z,9.00
2023-05-21T02:30:13.724Z,10.43
2023-05-21T02:32:43.244Z,10.70
2023-05-21T02:35:12.905Z,8.02
2023-05-21T02:37:41.573Z,9.05
2023-05-21T02:40:10.786Z,8.38
2023-05-21T02:42:40.449Z,9.90
2023-05-21T02:45:12.885Z,8.90
2023-05-21T02:47:43.346Z,9.52
2023-05-21T02:50:11.372Z,9.88
2023-05-21T02:52:50.542Z,8.43
2023-05-21T02:55:18.358Z,9.45
2023-05-21T02:57:46.151Z,8.20
2023-05-21T03:00:16.807Z,10.85
2023-05-21T03:02:45.495Z,11.05
2023-05-21T03:05:13.471Z,9.52
2023-05-21T03:07:41.857Z,9.15
2023-05-21T03:10:10.353Z,9.43
2023-05-21T03:12:38.274Z,10.73
2023-05-21T03:15:06.756Z,8.68
2023-05-21T03:17:36.118Z,8.77
2023-05-21T03:20:05.823Z,8.63
2023-05-21T03:22:33.964Z,10.17
2023-05-21T03:25:02.705Z,10.63
2023-05-21T03:27:30.581Z,8.57
2023-05-21T03:30:06.655Z,8.57
2023-05-21T03:32:45.138Z,9.75
2023-05-21T03:35:13.323Z,9.80
2023-05-21T03:37:41.058Z,9.10
2023-05-21T03:40:10.600Z,7.75
2023-05-21T03:42:38.442Z,11.77
2023-05-21T03:45:07.951Z,8.45
2023-05-21T03:47:56.115Z,10.13
2023-05-21T03:50:24.042Z,9.85
2023-05-21T03:52:51.846Z,8.20
2023-05-21T03:55:19.719Z,9.23
2023-05-21T03:57:47.512Z,8.90
2023-05-21T04:00:16.593Z,8.93
2023-05-21T04:02:44.444Z,10.05
2023-05-21T04:05:17.388Z,7.95
2023-05-21T04:07:47.222Z,9.55
2023-05-21T04:10:15.014Z,8.43
2023-05-21T04:12:43.217Z,7.73
2023-05-21T04:15:12.474Z,8.63
2023-05-21T04:17:40.452Z,7.95
2023-05-21T04:20:09.459Z,8.00
2023-05-21T04:22:38.859Z,8.27
2023-05-21T04:25:07.088Z,7.83
2023-05-21T04:27:38.585Z,10.15
2023-05-21T04:30:07.845Z,8.70
2023-05-21T04:32:38.557Z,8.93
2023-05-21T04:35:10.153Z,7.40
2023-05-21T04:37:42.091Z,8.83
2023-05-21T04:40:11.196Z,9.07
2023-05-21T04:42:39.138Z,8.80
2023-05-21T04:45:07.903Z,8.18
2023-05-21T04:47:39.368Z,8.52
2023-05-21T04:50:08.584Z,9.30
2023-05-21T04:52:36.909Z,10.48
2023-05-21T04:55:07.865Z,7.97
2023-05-21T04:57:36.244Z,8.85
2023-05-21T05:00:06.471Z,7.63
2023-05-21T05:02:40.164Z,11.37
2023-05-21T05:05:08.410Z,10.55
2023-05-21T05:07:37.140Z,9.13
2023-05-21T05:10:07.334Z,7.63
2023-05-21T05:12:35.102Z,8.05
2023-05-21T05:15:03.303Z,9.23
2023-05-21T05:17:31.404Z,9.02
2023-05-21T05:19:59.708Z,9.23
2023-05-21T05:22:28.167Z,8.35
2023-05-21T05:24:56.049Z,8.45
2023-05-21T05:27:25.697Z,7.93
2023-05-21T05:29:53.804Z,10.57
2023-05-21T05:32:21.702Z,9.10
2023-05-21T05:34:49.632Z,11.95
2023-05-21T05:37:17.556Z,11.40
2023-05-21T05:39:45.390Z,11.37
2023-05-21T05:42:13.178Z,9.27
2023-05-21T05:44:42.345Z,9.55
2023-05-21T05:47:10.966Z,10.77
2023-05-21T05:49:40.597Z,12.05
2023-05-21T05:52:08.485Z,11.20
2023-05-21T05:54:36.319Z,8.88
2023-05-21T05:57:04.210Z,11.20
2023-05-21T05:59:33.816Z,14.20
2023-05-21T06:02:03.917Z,12.23
2023-05-21T06:04:32.727Z,12.03
2023-05-21T06:07:00.970Z,10.93
2023-05-21T06:09:28.900Z,10.90
2023-05-21T06:11:57.094Z,13.55
2023-05-21T06:14:24.968Z,13.10
2023-05-21T06:16:53.218Z,13.67
2023-05-21T06:19:23.155Z,14.35
2023-05-21T06:21:51.270Z,11.05
2023-05-21T06:24:19.035Z,15.40
2023-05-21T06:26:46.904Z,11.98
2023-05-21T06:29:17.064Z,11.30
2023-05-21T06:31:46.816Z,9.43
2023-05-21T06:34:14.655Z,11.90
2023-05-21T06:36:43.808Z,16.33
2023-05-21T06:39:12.094Z,11.40
2023-05-21T06:41:39.936Z,9.77
2023-05-21T06:44:25.197Z,11.90
2023-05-21T06:47:07.786Z,11.90
2023-05-21T06:49:36.371Z,11.95
2023-05-21T06:52:06.531Z,13.98
2023-05-21T06:54:34.781Z,12.40
2023-05-21T06:57:02.678Z,10.65
2023-05-21T06:59:32.256Z,9.23
2023-05-21T07:02:02.380Z,12.88
2023-05-21T07:04:32.043Z,9.07
2023-05-21T07:07:00.102Z,9.77
2023-05-21T07:09:29.895Z,11.65
2023-05-21T07:11:57.937Z,8.90
2023-05-21T07:14:26.184Z,12.30
2023-05-21T07:16:54.025Z,12.30
2023-05-21T07:19:21.942Z,11.33
2023-05-21T07:21:50.573Z,11.00
2023-05-21T07:24:18.453Z,9.43
2023-05-21T07:26:47.618Z,10.65
2023-05-21T07:29:15.604Z,9.90
2023-05-21T07:31:43.454Z,9.07
2023-05-21T07:34:12.124Z,9.65
2023-05-21T07:36:41.656Z,11.85
2023-05-21T07:39:09.612Z,10.80
2023-05-21T07:41:38.670Z,11.15
2023-05-21T07:44:11.453Z,12.53
2023-05-21T07:46:42.859Z,9.77
2023-05-21T07:49:16.714Z,9.27
2023-05-21T07:51:49.057Z,9.68
2023-05-21T07:54:17.165Z,10.50
2023-05-21T07:56:45.844Z,12.70
2023-05-21T07:59:27.699Z,8.38
2023-05-21T08:01:57.109Z,13.98
2023-05-21T08:04:25.307Z,11.57
2023-05-21T08:06:53.727Z,9.43
2023-05-21T08:09:21.699Z,10.10
2023-05-21T08:11:49.608Z,11.30
2023-05-21T08:14:17.545Z,9.90
2023-05-21T08:16:47.331Z,8.98
2023-05-21T08:19:15.346Z,11.85
2023-05-21T08:21:43.160Z,11.33
2023-05-21T08:24:12.496Z,11.02
2023-05-21T08:26:40.687Z,10.77
2023-05-21T08:29:08.485Z,10.48
2023-05-21T08:31:36.662Z,8.50
2023-05-21T08:34:05.808Z,7.57
2023-05-21T08:36:46.034Z,9.70
2023-05-21T08:39:33.825Z,9.32
2023-05-21T08:42:10.047Z,9.60
2023-05-21T08:44:44.225Z,8.57
2023-05-21T08:47:16.368Z,9.83
2023-05-21T08:49:48.035Z,11.05
2023-05-21T08:52:16.511Z,9.75
2023-05-21T08:54:45.693Z,8.95
2023-05-21T08:57:15.914Z,8.57
2023-05-21T08:59:45.114Z,10.27
2023-05-21T09:02:22.257Z,11.55
2023-05-21T09:04:57.018Z,9.70
2023-05-21T09:07:29.159Z,10.45
2023-05-21T09:10:19.535Z,8.50
2023-05-21T09:12:48.904Z,8.57
2023-05-21T09:15:17.056Z,10.45
2023-05-21T09:17:47.787Z,9.02
2023-05-21T09:20:53.554Z,10.07
2023-05-21T09:23:22.495Z,10.05
2023-05-21T09:25:52.039Z,13.17
2023-05-21T09:28:31.907Z,9.55
2023-05-21T09:31:04.534Z,9.45
2023-05-21T09:33:32.648Z,9.65
2023-05-21T09:36:02.057Z,11.77
2023-05-21T09:38:30.282Z,8.40
2023-05-21T09:40:58.294Z,8.35
2023-05-21T09:43:27.858Z,10.07
2023-05-21T09:46:00.479Z,7.95
2023-05-21T09:48:36.713Z,8.40
2023-05-21T09:51:14.663Z,10.40
2023-05-21T09:53:50.030Z,8.13
2023-05-21T09:56:20.097Z,9.57
2023-05-21T09:58:47.839Z,9.00
2023-05-21T10:01:15.608Z,9.95
2023-05-21T10:03:45.538Z,9.43
2023-05-21T10:06:16.244Z,8.65
2023-05-21T10:08:47.233Z,8.02
2023-05-21T10:11:16.832Z,8.98
2023-05-21T10:13:49.608Z,8.73
2023-05-21T10:16:18.812Z,12.13
2023-05-21T10:18:49.095Z,8.55
2023-05-21T10:21:18.735Z,9.23
2023-05-21T10:23:47.394Z,7.88
2023-05-21T10:26:15.512Z,8.77
2023-05-21T10:28:44.165Z,8.43
2023-05-21T10:31:12.879Z,8.40
2023-05-21T10:33:42.149Z,9.52
2023-05-21T10:36:10.447Z,8.57
2023-05-21T10:38:40.242Z,7.97
2023-05-21T10:41:09.225Z,8.60
2023-05-21T10:43:52.156Z,8.93
2023-05-21T10:46:41.645Z,12.65
2023-05-21T10:49:28.235Z,8.27
2023-05-21T10:52:04.612Z,9.43
2023-05-21T10:55:02.995Z,10.47
2023-05-21T10:58:03.342Z,10.05
2023-05-21T11:00:32.405Z,8.15
2023-05-21T11:03:01.788Z,10.95
2023-05-21T11:05:42.389Z,8.15
2023-05-21T11:08:23.914Z,10.33
2023-05-21T11:10:58.197Z,10.25
2023-05-21T11:13:27.625Z,8.05
2023-05-21T11:16:08.793Z,8.93
2023-05-21T11:19:02.337Z,10.40
2023-05-21T11:21:32.162Z,8.77
2023-05-21T11:24:06.404Z,9.32
2023-05-21T11:27:06.836Z,7.78
2023-05-21T11:29:44.216Z,8.82
2023-05-21T11:32:13.749Z,9.18
2023-05-21T11:34:43.586Z,8.47
2023-05-21T11:37:30.210Z,9.88
2023-05-21T11:40:00.244Z,9.45
2023-05-21T11:42:33.973Z,8.68
2023-05-21T11:45:04.088Z,8.98
2023-05-21T11:47:33.152Z,9.30
2023-05-21T11:50:02.918Z,7.22
2023-05-21T11:52:32.903Z,6.72
2023-05-21T11:55:01.149Z,10.23
2023-05-21T11:57:31.798Z,8.75
2023-05-21T12:00:02.300Z,11.53
2023-05-21T12:02:44.968Z,8.57
2023-05-21T12:05:13.332Z,8.90
2023-05-21T12:07:41.215Z,11.02
2023-05-21T12:10:09.969Z,8.55
2023-05-21T12:12:53.221Z,10.43
2023-05-21T12:15:24.922Z,9.05
2023-05-21T12:17:53.588Z,8.60
2023-05-21T12:20:21.906Z,8.45
2023-05-21T12:22:50.098Z,11.52
2023-05-21T12:25:20.243Z,8.10
2023-05-21T12:27:50.554Z,9.82
2023-05-21T12:30:18.500Z,8.25
2023-05-21T12:32:47.766Z,10.63
2023-05-21T12:35:23.483Z,7.95
2023-05-21T12:37:51.945Z,9.77
2023-05-21T12:40:20.725Z,6.80
2023-05-21T12:42:48.687Z,8.07
2023-05-21T12:45:18.772Z,8.65
2023-05-21T12:47:56.057Z,9.05
2023-05-21T12:50:24.709Z,7.77
2023-05-21T12:52:58.781Z,8.18
2023-05-21T12:55:27.116Z,7.80
2023-05-21T12:58:07.839Z,13.57
2023-05-21T13:00:36.313Z,12.65
2023-05-21T13:03:06.394Z,10.10
2023-05-21T13:05:34.674Z,9.23
2023-05-21T13:08:02.535Z,10.50
2023-05-21T13:10:30.394Z,7.32
2023-05-21T13:12:58.163Z,9.07
2023-05-21T13:15:25.856Z,8.40
2023-05-21T13:17:55.950Z,5.95
2023-05-21T13:20:27.511Z,11.10
2023-05-21T13:22:55.649Z,6.18
2023-05-21T13:25:24.799Z,10.40
2023-05-21T13:27:53.965Z,8.23
2023-05-21T13:30:22.749Z,11.75
2023-05-21T13:32:52.256Z,8.30
2023-05-21T13:35:20.422Z,7.07
2023-05-21T13:37:49.606Z,10.10
2023-05-21T13:40:18.003Z,10.53
2023-05-21T13:42:46.971Z,9.15
2023-05-21T13:45:17.024Z,9.48
2023-05-21T13:47:46.507Z,10.60
2023-05-21T13:50:18.075Z,7.18
2023-05-21T13:52:45.984Z,8.97
2023-05-21T13:55:15.901Z,7.75
2023-05-21T13:57:44.330Z,7.45
2023-05-21T14:00:15.361Z,7.35
2023-05-21T14:02:44.312Z,9.95
2023-05-21T14:05:12.752Z,6.93
2023-05-21T14:07:40.952Z,7.50
2023-05-21T14:10:09.890Z,11.13
2023-05-21T14:12:39.164Z,7.88
2023-05-21T14:15:08.037Z,7.60
2023-05-21T14:17:35.969Z,8.70
2023-05-21T14:20:03.811Z,9.82
2023-05-21T14:22:31.647Z,9.18
2023-05-21T14:24:59.531Z,8.85
2023-05-21T14:27:27.417Z,7.88
2023-05-21T14:29:56.626Z,7.10
2023-05-21T14:32:24.606Z,8.88
2023-05-21T14:34:52.581Z,7.65
2023-05-21T14:37:21.070Z,7.90
2023-05-21T14:39:49.118Z,9.27
2023-05-21T14:42:17.211Z,7.10
2023-05-21T14:44:45.082Z,7.05
2023-05-21T14:47:14.587Z,8.00
2023-05-21T14:49:42.620Z,7.22
2023-05-21T14:52:11.193Z,7.45
2023-05-21T14:54:38.985Z,6.67
2023-05-21T14:57:06.786Z,11.50
2023-05-21T14:59:34.577Z,13.57
2023-05-21T15:02:02.641Z,8.68
2023-05-21T15:04:31.866Z,9.40
2023-05-21T15:06:59.641Z,11.13
2023-05-21T15:09:27.378Z,10.00
2023-05-21T15:11:55.271Z,7.55
2023-05-21T15:14:23.026Z,9.15
2023-05-21T15:16:51.079Z,8.77
2023-05-21T15:19:19.002Z,9.00
2023-05-21T15:21:48.234Z,10.82
2023-05-21T15:24:15.997Z,7.75
2023-05-21T15:26:43.799Z,8.75
2023-05-21T15:29:11.509Z,8.30
2023-05-21T15:31:39.453Z,11.27
2023-05-21T15:34:07.256Z,8.00
2023-05-21T15:36:35.293Z,8.85
2023-05-21T15:39:05.958Z,8.93
2023-05-21T15:41:37.249Z,11.82
2023-05-21T15:44:05.735Z,9.77
2023-05-21T15:46:33.563Z,9.52
2023-05-21T15:49:01.421Z,10.18
2023-05-21T15:51:29.356Z,9.13
2023-05-21T15:53:57.219Z,10.07
2023-05-21T15:56:26.603Z,11.17
2023-05-21T15:58:54.399Z,8.82
2023-05-21T16:01:22.245Z,10.27
2023-05-21T16:03:50.442Z,9.75
2023-05-21T16:06:18.246Z,11.02
2023-05-21T16:08:46.284Z,13.23
2023-05-21T16:11:14.420Z,11.75
2023-05-21T16:13:43.769Z,12.20
2023-05-21T16:16:11.815Z,11.73
2023-05-21T16:18:39.747Z,12.57
2023-05-21T16:21:07.719Z,10.13
2023-05-21T16:23:38.382Z,12.45
2023-05-21T16:26:06.563Z,11.38
2023-05-21T16:28:34.723Z,15.32
2023-05-21T16:31:04.331Z,11.13
2023-05-21T16:33:32.114Z,12.30
2023-05-21T16:35:59.990Z,13.05
2023-05-21T16:38:27.872Z,11.63
2023-05-21T16:40:55.746Z,14.40
2023-05-21T16:43:23.657Z,14.18
2023-05-21T16:45:52.968Z,12.33
2023-05-21T16:48:22.266Z,14.70
2023-05-21T16:50:50.393Z,11.15
2023-05-21T16:53:18.334Z,13.82
2023-05-21T16:55:46.147Z,14.05
2023-05-21T16:58:14.230Z,12.97
2023-05-21T17:00:42.176Z,14.57
2023-05-21T17:03:10.097Z,13.45
2023-05-21T17:05:39.651Z,15.73
2023-05-21T17:08:08.618Z,11.40
2023-05-21T17:10:36.502Z,14.20
2023-05-21T17:13:17.685Z,12.20
2023-05-21T17:15:49.131Z,12.85
2023-05-21T17:18:17.039Z,13.18
2023-05-21T17:20:46.201Z,13.82
2023-05-21T17:23:14.071Z,13.63
2023-05-21T17:25:42.086Z,18.58
2023-05-21T17:28:10.121Z,11.40
2023-05-21T17:30:37.987Z,11.20
2023-05-21T17:33:06.498Z,13.05
2023-05-21T17:35:35.187Z,13.57
2023-05-21T17:38:04.544Z,12.15
2023-05-21T17:40:32.329Z,18.00
2023-05-21T17:43:00.192Z,14.30
2023-05-21T17:45:27.982Z,13.95
2023-05-21T17:47:58.929Z,14.57
2023-05-21T17:50:27.805Z,15.43
2023-05-21T17:52:55.678Z,15.15
2023-05-21T17:55:24.774Z,15.73
2023-05-21T17:57:52.614Z,15.77
2023-05-21T18:00:21.216Z,17.87
2023-05-21T18:02:49.099Z,14.25
2023-05-21T18:05:16.842Z,15.77
2023-05-21T18:07:44.688Z,13.38
2023-05-21T18:10:12.733Z,14.68
2023-05-21T18:12:42.413Z,12.17
2023-05-21T18:15:11.233Z,17.23
2023-05-21T18:17:39.074Z,13.93
2023-05-21T18:20:08.103Z,15.45
2023-05-21T18:22:36.635Z,16.20
2023-05-21T18:25:04.710Z,14.27
2023-05-21T18:27:32.462Z,12.73
2023-05-21T18:30:03.227Z,16.10
2023-05-21T18:32:32.586Z,14.52
2023-05-21T18:35:00.519Z,13.07
2023-05-21T18:37:29.272Z,15.07
2023-05-21T18:39:57.314Z,16.02
2023-05-21T18:42:25.065Z,17.83
2023-05-21T18:44:52.842Z,15.88
2023-05-21T18:47:22.719Z,17.52
2023-05-21T18:49:50.628Z,14.63
2023-05-21T18:52:18.475Z,13.80
2023-05-21T18:54:46.239Z,13.90
2023-05-21T18:57:14.245Z,16.52
2023-05-21T18:59:42.012Z,15.25
2023-05-21T19:02:10.698Z,13.47
2023-05-21T19:04:40.151Z,16.42
2023-05-21T19:07:08.017Z,18.08
2023-05-21T19:09:36.029Z,16.52
2023-05-21T19:12:04.027Z,15.18
2023-05-21T19:14:31.906Z,16.40
2023-05-21T19:16:59.719Z,16.33
2023-05-21T19:19:27.850Z,15.50
2023-05-21T19:21:57.289Z,17.80
2023-05-21T19:24:25.298Z,12.30
2023-05-21T19:26:53.104Z,16.43
2023-05-21T19:29:21.439Z,13.98
2023-05-21T19:31:49.453Z,12.60
2023-05-21T19:34:17.249Z,18.48
2023-05-21T19:36:52.808Z,14.98
2023-05-21T19:39:23.102Z,13.17
2023-05-21T19:41:51.620Z,16.10
2023-05-21T19:44:19.739Z,15.52
2023-05-21T19:46:48.595Z,17.35
2023-05-21T19:49:16.456Z,19.23
2023-05-21T19:51:44.311Z,15.53
2023-05-21T19:54:12.219Z,19.33
2023-05-21T19:56:41.490Z,15.35
2023-05-21T19:59:09.369Z,15.48
2023-05-21T20:01:39.439Z,21.00
2023-05-21T20:04:07.629Z,18.03
2023-05-21T20:06:35.855Z,17.35
2023-05-21T20:09:04.260Z,16.98
2023-05-21T20:11:32.084Z,19.17
2023-05-21T20:14:02.267Z,16.95
2023-05-21T20:16:30.584Z,17.90
2023-05-21T20:18:58.479Z,19.13
2023-05-21T20:21:26.373Z,18.58
2023-05-21T20:23:54.780Z,23.52
2023-05-21T20:26:23.158Z,14.15
2023-05-21T20:28:50.918Z,19.57
2023-05-21T20:31:20.281Z,19.10
2023-05-21T20:33:50.466Z,24.55
2023-05-21T20:36:18.537Z,18.10
2023-05-21T20:38:47.108Z,21.02
2023-05-21T20:41:14.927Z,18.37
2023-05-21T20:43:45.258Z,16.15
2023-05-21T20:46:13.561Z,23.50
2023-05-21T20:48:43.494Z,18.23
2023-05-21T20:51:12.147Z,20.10
2023-05-21T20:53:39.927Z,17.97
2023-05-21T20:56:09.092Z,19.02
2023-05-21T20:58:36.927Z,20.60
2023-05-21T21:01:04.876Z,18.60
2023-05-21T21:03:34.336Z,17.42
2023-05-21T21:06:05.774Z,20.93
2023-05-21T21:08:34.695Z,19.90
2023-05-21T21:11:02.572Z,18.42
2023-05-21T21:13:30.482Z,22.33
2023-05-21T21:15:58.409Z,20.27
2023-05-21T21:18:26.464Z,17.33
2023-05-21T21:20:54.409Z,15.88
2023-05-21T21:23:24.392Z,18.13
2023-05-21T21:25:52.407Z,16.58
2023-05-21T21:28:20.359Z,20.48
2023-05-21T21:30:48.303Z,19.50
2023-05-21T21:33:16.581Z,17.00
2023-05-21T21:35:44.529Z,14.57
2023-05-21T21:38:12.272Z,19.70
2023-05-21T21:40:41.463Z,18.30
2023-05-21T21:43:09.360Z,20.30
2023-05-21T21:45:37.097Z,21.95
2023-05-21T21:48:05.837Z,16.58
2023-05-21T21:50:33.688Z,20.33
2023-05-21T21:53:03.566Z,26.75
2023-05-21T21:55:31.424Z,16.67
2023-05-21T21:58:00.558Z,20.30
2023-05-21T22:00:28.522Z,14.88
2023-05-21T22:02:56.790Z,23.85
2023-05-21T22:05:24.642Z,15.57
2023-05-21T22:07:52.980Z,16.73
2023-05-21T22:10:21.261Z,17.45
2023-05-21T22:12:49.096Z,23.38
2023-05-21T22:15:24.922Z,19.80
2023-05-21T22:17:53.733Z,23.58
2023-05-21T22:20:22.948Z,21.47
2023-05-21T22:22:51.345Z,20.33
2023-05-21T22:25:20.277Z,20.35
2023-05-21T22:27:48.358Z,19.27
2023-05-21T22:30:16.162Z,18.45
2023-05-21T22:32:45.341Z,24.93
2023-05-21T22:35:13.514Z,23.15
2023-05-21T22:37:41.294Z,22.27
2023-05-21T22:40:10.444Z,18.40
2023-05-21T22:42:38.461Z,20.42
2023-05-21T22:45:07.456Z,22.17
2023-05-21T22:47:36.998Z,21.63
2023-05-21T22:50:07.215Z,20.73
2023-05-21T22:52:35.307Z,25.33
2023-05-21T22:55:03.473Z,22.17
2023-05-21T22:57:31.505Z,21.47
2023-05-21T22:59:59.334Z,24.83
2023-05-21T23:02:27.141Z,22.67
2023-05-21T23:04:54.972Z,19.30
2023-05-21T23:07:24.329Z,22.52
2023-05-21T23:09:52.219Z,25.87
2023-05-21T23:12:20.287Z,23.75
2023-05-21T23:14:48.109Z,21.45
2023-05-21T23:17:15.905Z,24.67
2023-05-21T23:19:43.676Z,25.08
2023-05-21T23:22:11.606Z,24.30
2023-05-21T23:24:40.736Z,23.05
2023-05-21T23:27:08.474Z,24.05
2023-05-21T23:29:36.205Z,23.65
2023-05-21T23:32:05.202Z,20.90
2023-05-21T23:34:33.167Z,27.07
2023-05-21T23:37:01.156Z,27.73
2023-05-21T23:39:29.830Z,28.60
2023-05-21T23:41:59.185Z,23.95
2023-05-21T23:44:27.041Z,23.00
2023-05-21T23:46:54.862Z,25.77
2023-05-21T23:49:22.610Z,25.58
2023-05-21T23:51:50.972Z,24.73
2023-05-21T23:54:18.944Z,23.52
2023-05-21T23:56:46.877Z,28.58
2023-05-21T23:59:18.372Z,29.10
